Time;durP1;ratioP1;P1;durP2;ratioP2;P2;SDS_P1;SDS_P2;PMS_P1;PMS_P2;Temp;Humidity;BMP_temperature;BMP_pressure;BME280_temperature;BME280_humidity;BME280_pressure;Samples;Min_cycle;Max_cycle;Signal;HPM_P1;HPM_P2
2022/05/04 00:01:08;;;;;;;34.53;6.85;;;;;;;9.61;100.00;101583.84;4997408;28;20042;-79
2022/05/04 00:03:43;;;;;;;12.70;4.97;;;;;;;9.50;100.00;101579.06;4984871;28;20041;-79
2022/05/04 00:06:10;;;;;;;23.23;4.88;;;;;;;9.60;100.00;101585.69;4969075;28;20034;-79
2022/05/04 00:08:37;;;;;;;14.63;5.10;;;;;;;9.62;100.00;101588.34;4964122;28;20046;-80
2022/05/04 00:11:13;;;;;;;13.80;5.03;;;;;;;9.55;100.00;101582.38;4991907;28;20378;-78
2022/05/04 00:13:39;;;;;;;13.60;5.38;;;;;;;9.55;100.00;101587.84;4997674;28;20034;-79
2022/05/04 00:16:07;;;;;;;22.60;5.55;;;;;;;9.50;100.00;101574.47;5013961;28;20049;-79
2022/05/04 00:18:33;;;;;;;14.00;5.43;;;;;;;9.49;100.00;101575.44;4997807;28;20487;-78
2022/05/04 00:21:00;;;;;;;17.40;5.47;;;;;;;9.54;100.00;101586.09;4968581;28;20098;-79
2022/05/04 00:23:26;;;;;;;18.65;4.43;;;;;;;9.49;100.00;101580.91;5000285;28;20483;-78
2022/05/04 00:25:52;;;;;;;20.38;5.50;;;;;;;9.50;100.00;101585.41;4948249;28;20177;-78
2022/05/04 00:28:24;;;;;;;19.33;4.97;;;;;;;9.48;100.00;101570.09;4986362;28;20106;-80
2022/05/04 00:30:49;;;;;;;19.25;5.00;;;;;;;9.53;100.00;101582.47;4992844;28;20403;-79
2022/05/04 00:33:25;;;;;;;15.52;5.20;;;;;;;9.50;100.00;101569.00;4983414;28;20398;-79
2022/05/04 00:35:51;;;;;;;23.80;5.95;;;;;;;9.52;100.00;101582.56;4997594;28;20034;-79
2022/05/04 00:38:19;;;;;;;17.60;5.78;;;;;;;9.38;100.00;101584.31;4994752;28;20433;-78
2022/05/04 00:40:48;;;;;;;21.30;5.88;;;;;;;9.42;100.00;101592.34;4995825;28;20044;-80
2022/05/04 00:43:25;;;;;;;12.73;5.00;;;;;;;9.36;100.00;101586.28;4995857;28;20508;-79
2022/05/04 00:45:52;;;;;;;18.15;5.43;;;;;;;9.39;100.00;101577.00;4984226;28;20038;-79
2022/05/04 00:48:20;;;;;;;18.02;5.93;;;;;;;9.35;100.00;101584.50;4994415;28;20030;-78
2022/05/04 00:50:55;;;;;;;13.23;5.60;;;;;;;9.33;100.00;101581.00;5011934;28;20493;-79
2022/05/04 00:53:27;;;;;;;22.17;5.90;;;;;;;9.29;100.00;101587.63;4971158;28;20061;-78
2022/05/04 00:55:54;;;;;;;15.30;5.43;;;;;;;9.34;100.00;101592.81;4997471;28;20122;-78
2022/05/04 01:01:05;;;;;;;20.00;4.95;;;;;;;9.27;100.00;101589.56;4998428;28;20038;-79
2022/05/04 01:03:30;;;;;;;23.20;5.68;;;;;;;9.23;100.00;101587.13;4972373;28;20058;-78
2022/05/04 01:05:56;;;;;;;14.80;5.72;;;;;;;9.29;100.00;101582.16;4978161;28;20493;-78
2022/05/04 01:08:22;;;;;;;18.65;5.70;;;;;;;9.19;100.00;101581.84;4981667;28;20038;-78
2022/05/04 01:10:51;;;;;;;25.02;5.13;;;;;;;9.20;100.00;101580.88;4993673;28;20050;-78
2022/05/04 01:13:20;;;;;;;15.75;5.72;;;;;;;9.23;100.00;101584.38;4994655;28;20077;-77
2022/05/04 01:15:50;;;;;;;22.63;6.00;;;;;;;9.27;100.00;101584.13;4994699;28;20117;-79
2022/05/04 01:18:16;;;;;;;32.78;7.43;;;;;;;9.14;100.00;101575.78;4996756;28;20079;-78
2022/05/04 01:20:42;;;;;;;16.77;5.22;;;;;;;9.19;100.00;101573.66;4996446;28;20038;-79
2022/05/04 01:23:10;;;;;;;23.55;6.75;;;;;;;9.23;100.00;101573.47;4994576;28;20045;-79
2022/05/04 01:25:38;;;;;;;15.60;5.82;;;;;;;9.25;100.00;101579.69;4997795;28;20098;-80
2022/05/04 01:28:05;;;;;;;19.55;5.70;;;;;;;9.12;100.00;101582.34;4979399;28;20049;-79
2022/05/04 01:30:34;;;;;;;24.92;6.25;;;;;;;9.17;100.00;101586.53;4997086;28;20042;-78
2022/05/04 01:33:01;;;;;;;23.52;6.78;;;;;;;9.14;100.00;101583.13;4984267;28;20093;-78
2022/05/04 01:35:26;;;;;;;23.17;6.38;;;;;;;9.04;100.00;101581.94;4976529;28;20386;-77
2022/05/04 01:37:59;;;;;;;;;;;;;;;9.03;100.00;101586.50;4981769;28;20046;-78
2022/05/04 01:40:28;;;;;;;26.17;5.85;;;;;;;9.10;100.00;101584.25;4977841;28;20350;-79
2022/05/04 01:42:56;;;;;;;21.02;5.95;;;;;;;8.99;100.00;101583.06;4990091;28;20058;-78
2022/05/04 01:45:23;;;;;;;18.35;6.10;;;;;;;8.97;100.00;101585.03;4989873;28;20038;-78
2022/05/04 01:47:52;;;;;;;20.50;6.22;;;;;;;8.95;100.00;101577.88;4997879;28;20124;-78
2022/05/04 01:50:18;;;;;;;20.33;5.30;;;;;;;8.95;100.00;101581.53;4957433;28;20037;-78
2022/05/04 01:52:44;;;;;;;22.70;6.72;;;;;;;8.87;100.00;101570.19;4991346;28;20089;-79
2022/05/04 01:55:09;;;;;;;19.42;5.65;;;;;;;8.86;100.00;101589.38;5008552;28;20065;-79
2022/05/04 01:57:36;;;;;;;16.83;5.68;;;;;;;8.86;100.00;101586.66;4965874;28;20043;-77
2022/05/04 02:00:01;;;;;;;20.00;5.55;;;;;;;8.83;100.00;101583.13;4991008;28;20038;-78
2022/05/04 02:02:27;;;;;;;30.40;6.18;;;;;;;8.77;100.00;101578.03;4976707;28;20073;-78
2022/05/04 02:04:55;;;;;;;22.95;6.47;;;;;;;8.76;100.00;101565.34;5012037;28;20030;-79
2022/05/04 02:07:23;;;;;;;27.58;7.32;;;;;;;8.85;100.00;101580.28;4996201;28;20058;-78
2022/05/04 02:09:49;;;;;;;20.55;5.82;;;;;;;8.90;100.00;101580.88;4995742;28;20678;-79
2022/05/04 02:12:27;;;;;;;22.40;6.05;;;;;;;8.84;100.00;101573.09;4996381;28;20378;-79
2022/05/04 02:14:55;;;;;;;14.02;5.53;;;;;;;8.83;100.00;101582.25;4976787;28;20039;-78
2022/05/04 02:17:21;;;;;;;20.85;7.00;;;;;;;8.95;100.00;101575.16;5011331;28;20466;-77
2022/05/04 02:19:48;;;;;;;16.70;5.93;;;;;;;8.84;100.00;101578.56;4997085;28;20034;-78
2022/05/04 02:22:14;;;;;;;16.42;5.82;;;;;;;8.99;100.00;101585.81;4996551;28;20030;-78
2022/05/04 02:24:49;;;;;;;20.90;5.80;;;;;;;9.04;100.00;101584.66;4971870;28;20042;-78
2022/05/04 02:27:15;;;;;;;21.70;7.70;;;;;;;9.04;100.00;101581.94;4990071;28;20138;-78
2022/05/04 02:29:43;;;;;;;30.50;6.60;;;;;;;9.00;100.00;101578.47;4980684;28;20038;-79
2022/05/04 02:32:08;;;;;;;13.60;6.30;;;;;;;8.88;100.00;101574.66;4992839;28;20057;-79
2022/05/04 02:38:11;;;;;;;20.98;6.53;;;;;;;9.02;100.00;101573.81;4998021;28;20061;-78
2022/05/04 02:40:19;;;;;;;20.58;5.95;;;;;;;9.01;100.00;101569.31;4992680;28;20050;-78
2022/05/04 02:42:54;;;;;;;20.02;6.25;;;;;;;9.02;100.00;101571.97;4987634;28;20031;-77
2022/05/04 02:45:20;;;;;;;28.80;6.95;;;;;;;8.95;100.00;101570.59;4991469;28;20046;-78
2022/05/04 02:47:56;;;;;;;18.65;6.05;;;;;;;8.91;100.00;101562.69;4965548;28;20037;-77
2022/05/04 02:50:23;;;;;;;17.65;6.07;;;;;;;8.91;100.00;101570.88;4981775;28;20039;-78
2022/05/04 02:52:59;;;;;;;28.33;5.75;;;;;;;8.93;100.00;101558.84;4995532;28;20026;-78
2022/05/04 02:55:25;;;;;;;19.55;5.80;;;;;;;8.85;100.00;101566.63;4984652;28;20049;-79
2022/05/04 02:57:53;;;;;;;18.27;5.85;;;;;;;8.86;100.00;101564.81;5007366;28;20030;-79
2022/05/04 03:00:20;;;;;;;23.33;6.38;;;;;;;8.86;100.00;101562.06;4977807;28;20031;-78
2022/05/04 03:02:46;;;;;;;24.85;6.15;;;;;;;8.94;100.00;101557.91;4996961;28;20040;-78
2022/05/04 03:05:22;;;;;;;29.88;6.53;;;;;;;8.94;100.00;101552.44;4981333;28;20038;-77
2022/05/04 03:07:48;;;;;;;24.60;6.50;;;;;;;8.91;100.00;101560.81;4990368;28;20042;-78
2022/05/04 03:10:14;;;;;;;20.92;5.95;;;;;;;8.93;100.00;101556.13;4991234;28;20030;-78
2022/05/04 03:12:40;;;;;;;18.85;5.60;;;;;;;8.87;100.00;101551.06;4991672;28;20051;-79
2022/05/04 03:15:07;;;;;;;21.23;6.68;;;;;;;8.90;100.00;101553.59;4995121;28;20558;-79
2022/05/04 03:17:34;;;;;;;24.08;6.63;;;;;;;8.76;100.00;101554.44;4994105;28;20406;-78
2022/05/04 03:20:12;;;;;;;23.65;6.53;;;;;;;8.81;100.00;101545.97;4995486;28;20462;-77
2022/05/04 03:22:38;;;;;;;19.90;6.18;;;;;;;8.80;100.00;101555.13;4991527;28;20500;-78
2022/05/04 03:25:08;;;;;;;18.77;6.00;;;;;;;8.79;100.00;101551.53;4987998;28;20034;-78
2022/05/04 03:27:37;;;;;;;18.95;5.75;;;;;;;8.85;100.00;101547.53;4993332;28;20035;-79
2022/05/04 03:30:19;;;;;;;21.65;7.00;;;;;;;8.83;100.00;101552.22;4982552;28;20065;-79
2022/05/04 03:32:44;;;;;;;18.52;6.35;;;;;;;8.86;100.00;101542.97;4991718;28;20070;-77
2022/05/04 03:35:21;;;;;;;15.85;6.15;;;;;;;8.81;100.00;101551.44;4962977;28;20042;-78
2022/05/04 03:37:46;;;;;;;19.38;6.63;;;;;;;8.94;100.00;101544.25;4964522;28;20049;-77
2022/05/04 03:40:16;;;;;;;20.77;6.50;;;;;;;8.75;100.00;101540.88;4981790;28;20084;-76
2022/05/04 03:42:42;;;;;;;25.90;6.80;;;;;;;8.84;100.00;101553.97;4998681;28;20038;-77
2022/05/04 03:45:14;;;;;;;13.32;5.40;;;;;;;8.81;100.00;101545.97;4984422;28;20066;-78
2022/05/04 03:47:40;;;;;;;18.25;5.28;;;;;;;8.79;100.00;101545.19;4996241;28;20062;-78
2022/05/04 03:50:06;;;;;;;19.75;7.93;;;;;;;8.81;100.00;101545.97;4961729;28;20117;-77
2022/05/04 03:52:32;;;;;;;16.83;5.82;;;;;;;8.85;100.00;101550.25;4982390;28;20471;-77
2022/05/04 03:54:58;;;;;;;18.75;6.13;;;;;;;8.76;100.00;101548.97;4967095;28;20390;-78
2022/05/04 03:57:26;;;;;;;31.45;7.07;;;;;;;8.75;100.00;101543.59;4994359;28;20100;-78
2022/05/04 03:59:52;;;;;;;21.33;7.47;;;;;;;8.71;100.00;101553.84;4980883;28;20432;-78
2022/05/04 04:02:17;;;;;;;14.23;5.70;;;;;;;8.69;100.00;101546.69;4997382;28;20046;-80
2022/05/04 04:04:53;;;;;;;16.48;6.43;;;;;;;8.64;100.00;101555.16;5008652;28;20041;-79
2022/05/04 04:07:18;;;;;;;21.42;6.25;;;;;;;8.69;100.00;101557.63;4977777;28;20050;-78
2022/05/04 04:09:49;;;;;;;23.90;7.35;;;;;;;8.58;100.00;101556.41;4998184;28;20042;-79
2022/05/04 04:12:24;;;;;;;16.00;6.00;;;;;;;8.65;100.00;101565.97;4974659;28;20058;-78
2022/05/04 04:14:55;;;;;;;29.05;7.03;;;;;;;8.63;100.00;101557.00;4958626;28;20039;-78
2022/05/04 04:17:24;;;;;;;40.10;7.95;;;;;;;8.72;100.00;101568.34;4998373;28;20065;-79
2022/05/04 04:21:50;;;;;;;39.92;6.63;;;;;;;8.71;100.00;101562.03;4977524;28;20098;-79
2022/05/04 04:22:36;;;;;;;17.45;6.53;;;;;;;8.70;100.00;101559.38;4996550;28;20121;-76
2022/05/04 04:25:02;;;;;;;26.45;6.30;;;;;;;8.72;100.00;101561.03;4988901;28;20037;-80
2022/05/04 04:27:35;;;;;;;26.85;6.13;;;;;;;8.63;100.00;101557.00;4998674;28;20038;-78
2022/05/04 04:30:11;;;;;;;31.00;6.25;;;;;;;8.60;100.00;101554.47;4997966;28;20390;-79
2022/05/04 04:32:50;;;;;;;22.75;7.13;;;;;;;8.71;100.00;101559.28;4987549;28;20045;-79
2022/05/04 04:35:25;;;;;;;14.50;5.72;;;;;;;8.68;100.00;101562.19;5006525;28;20034;-79
2022/05/04 04:37:52;;;;;;;16.45;5.47;;;;;;;8.63;100.00;101565.19;4995213;28;20038;-80
2022/05/04 04:40:18;;;;;;;15.30;5.97;;;;;;;8.54;100.00;101560.28;4964812;28;20042;-78
2022/05/04 04:42:46;;;;;;;21.58;6.07;;;;;;;8.60;100.00;101570.84;4971010;28;20045;-79
2022/05/04 04:45:11;;;;;;;18.25;5.68;;;;;;;8.53;100.00;101558.53;4998259;28;20469;-80
2022/05/04 04:47:47;;;;;;;16.48;5.10;;;;;;;8.68;100.00;101564.94;4982059;28;20056;-79
2022/05/04 04:50:20;;;;;;;26.25;6.20;;;;;;;8.65;100.00;101570.56;4998248;28;20456;-78
2022/05/04 04:52:53;;;;;;;19.58;6.53;;;;;;;8.57;100.00;101560.09;4999198;28;20049;-79
2022/05/04 04:55:22;;;;;;;17.85;6.20;;;;;;;8.63;100.00;101559.75;4991782;28;20038;-78
2022/05/04 04:57:48;;;;;;;15.50;5.30;;;;;;;8.74;100.00;101559.13;4995771;28;20494;-78
2022/05/04 05:00:15;;;;;;;18.17;5.13;;;;;;;8.63;100.00;101554.28;4976181;28;20041;-77
2022/05/04 05:02:51;;;;;;;15.88;5.35;;;;;;;8.73;100.00;101561.94;4996464;28;20097;-78
2022/05/04 05:05:18;;;;;;;18.80;5.90;;;;;;;8.74;100.00;101560.94;4974667;28;20491;-78
2022/05/04 05:07:44;;;;;;;23.67;6.13;;;;;;;8.66;100.00;101564.16;4964931;28;20049;-78
2022/05/04 05:10:13;;;;;;;19.55;6.07;;;;;;;8.76;100.00;101565.34;4968671;28;20058;-78
2022/05/04 05:12:38;;;;;;;19.33;5.93;;;;;;;8.75;100.00;101552.66;5005445;28;20054;-78
2022/05/04 05:17:56;;;;;;;14.10;5.40;;;;;;;8.80;100.00;101569.63;4997699;28;20038;-78
2022/05/04 05:20:23;;;;;;;18.80;6.07;;;;;;;8.80;100.00;101569.63;4981253;28;20037;-78
2022/05/04 05:22:48;;;;;;;14.95;5.88;;;;;;;8.92;100.00;101570.78;4966449;28;20038;-78
2022/05/04 05:25:19;;;;;;;18.27;6.15;;;;;;;8.96;100.00;101569.59;4967438;28;20045;-77
2022/05/04 05:27:56;;;;;;;19.23;5.57;;;;;;;8.85;100.00;101574.84;4982217;28;20069;-78
2022/05/04 05:30:22;;;;;;;19.83;5.88;;;;;;;9.06;100.00;101577.25;4979476;28;20026;-78
2022/05/04 05:32:48;;;;;;;14.90;4.95;;;;;;;9.08;100.00;101581.63;4997150;28;20042;-79
2022/05/04 05:35:15;;;;;;;17.52;6.07;;;;;;;9.18;100.00;101577.38;5000207;28;20076;-78
2022/05/04 05:37:41;;;;;;;13.98;5.32;;;;;;;9.10;100.00;101565.13;4987966;28;20122;-78
2022/05/04 05:40:07;;;;;;;17.58;5.30;;;;;;;9.11;100.00;101558.72;4964506;28;20415;-78
2022/05/04 05:42:35;;;;;;;19.75;5.72;;;;;;;9.23;100.00;101562.53;4992538;28;20053;-77
2022/05/04 05:45:02;;;;;;;22.20;5.68;;;;;;;9.17;100.00;101575.59;4962086;28;20387;-77
2022/05/04 05:47:28;;;;;;;20.80;5.20;;;;;;;9.38;100.00;101576.13;4996572;28;20061;-78
2022/05/04 05:49:55;;;;;;;17.08;5.55;;;;;;;9.37;100.00;101568.03;4969278;28;20368;-78
2022/05/04 05:52:27;;;;;;;;;;;;;;;9.51;100.00;101572.59;4965988;28;20062;-77
2022/05/04 05:55:03;;;;;;;30.00;4.95;;;;;;;9.37;100.00;101579.81;4959000;28;19917;-78
2022/05/04 05:57:30;;;;;;;18.25;4.15;;;;;;;9.63;100.00;101582.78;5004297;28;20133;-78
2022/05/04 05:59:55;;;;;;;23.08;6.00;;;;;;;9.66;100.00;101574.38;5000853;28;20058;-77
2022/05/04 06:02:27;;;;;;;20.38;4.93;;;;;;;9.55;100.00;101572.31;4993373;28;20161;-78
2022/05/04 06:05:02;;;;;;;14.85;5.07;;;;;;;9.62;100.00;101578.28;4995483;28;20034;-78
2022/05/04 06:07:27;;;;;;;12.93;4.88;;;;;;;9.86;100.00;101583.16;5005939;28;20081;-79
2022/05/04 06:09:53;;;;;;;20.55;4.80;;;;;;;9.78;100.00;101578.19;4997478;28;20038;-78
2022/05/04 06:12:22;;;;;;;16.20;5.05;;;;;;;9.85;100.00;101581.41;4987697;28;20054;-78
2022/05/04 06:14:48;;;;;;;15.68;4.72;;;;;;;9.85;100.00;101579.53;4993537;28;20041;-79
2022/05/04 06:17:16;;;;;;;17.92;5.20;;;;;;;10.05;100.00;101581.00;4969338;28;20459;-78
2022/05/04 06:19:42;;;;;;;23.15;5.60;;;;;;;10.40;99.73;101583.28;4975659;28;20394;-77
2022/05/04 06:22:11;;;;;;;15.65;5.63;;;;;;;10.54;97.52;101587.81;4991890;28;20049;-78
2022/05/04 06:24:38;;;;;;;20.52;7.68;;;;;;;10.58;98.51;101586.66;4995940;28;20041;-77
2022/05/04 06:27:07;;;;;;;17.35;6.07;;;;;;;10.55;97.70;101583.25;4987082;28;20470;-78
2022/05/04 06:35:20;;;;;;;17.45;5.40;;;;;;;10.77;95.77;101591.78;4984338;28;20125;-76
2022/05/04 06:37:47;;;;;;;20.23;6.35;;;;;;;10.71;95.64;101586.69;4989032;28;20088;-76
2022/05/04 06:40:12;;;;;;;23.50;6.68;;;;;;;10.98;94.34;101594.00;4991039;28;20034;-76
2022/05/04 06:42:40;;;;;;;17.05;6.18;;;;;;;11.37;93.27;101594.94;4982042;28;20046;-76
2022/05/04 06:45:15;;;;;;;16.15;5.57;;;;;;;11.28;92.38;101601.06;4989549;28;20035;-77
2022/05/04 06:47:40;;;;;;;23.98;6.28;;;;;;;11.27;92.32;101602.94;4994026;28;20034;-77
2022/05/04 06:50:06;;;;;;;16.10;5.75;;;;;;;12.06;88.77;101598.22;4991624;28;20038;-76
2022/05/04 06:52:32;;;;;;;17.50;6.55;;;;;;;11.82;89.90;101602.72;4976684;28;20038;-76
2022/05/04 06:55:08;;;;;;;18.65;7.05;;;;;;;11.45;91.55;101597.16;4951054;28;20050;-77
2022/05/04 06:57:36;;;;;;;19.13;5.82;;;;;;;11.68;89.58;101601.00;4988443;28;20038;-75
2022/05/04 07:00:04;;;;;;;20.25;5.20;;;;;;;11.73;89.15;101607.91;4989836;28;20031;-75
2022/05/04 07:02:33;;;;;;;16.80;6.10;;;;;;;12.71;85.76;101600.75;4966558;28;20042;-76
2022/05/04 07:05:03;;;;;;;21.45;5.38;;;;;;;12.50;85.49;101601.41;4989976;28;20120;-77
2022/05/04 07:07:39;;;;;;;16.05;4.97;;;;;;;12.99;83.99;101589.41;4993132;28;20459;-77
2022/05/04 07:10:09;;;;;;;14.50;5.03;;;;;;;12.30;84.54;101594.66;4977386;28;20039;-77
2022/05/04 07:12:38;;;;;;;13.13;5.32;;;;;;;12.74;86.64;101603.28;4993727;28;20398;-76
2022/05/04 07:15:09;;;;;;;17.92;5.47;;;;;;;13.53;80.79;101596.22;4990171;28;20051;-77
2022/05/04 07:17:36;;;;;;;19.90;6.10;;;;;;;14.02;76.24;101599.63;4991928;28;20046;-76
2022/05/04 07:20:09;;;;;;;20.25;5.68;;;;;;;14.30;74.76;101595.47;4995193;28;20088;-78
2022/05/04 07:22:35;;;;;;;12.82;5.88;;;;;;;14.33;76.05;101597.06;4996193;28;20041;-77
2022/05/04 07:25:01;;;;;;;19.23;6.20;;;;;;;13.70;78.39;101597.59;4996756;28;20038;-77
2022/05/04 07:27:27;;;;;;;22.95;6.18;;;;;;;13.56;78.52;101592.31;4992360;28;20434;-77
2022/05/04 07:29:53;;;;;;;14.05;5.60;;;;;;;13.65;80.35;101591.59;4992899;28;20031;-76
2022/05/04 07:32:21;;;;;;;24.33;5.60;;;;;;;14.30;77.79;101600.09;4984580;28;20035;-76
2022/05/04 07:34:46;;;;;;;20.67;5.47;;;;;;;14.13;76.80;101604.25;4985131;28;20031;-77
2022/05/04 07:37:14;;;;;;;18.55;6.03;;;;;;;13.96;74.12;101603.75;5005017;28;20043;-77
2022/05/04 07:42:25;;;;;;;17.85;4.60;;;;;;;14.52;73.45;101600.03;4982210;28;20097;-77
2022/05/04 07:44:57;;;;;;;25.95;5.82;;;;;;;14.63;71.40;101601.06;4995920;28;20485;-78
2022/05/04 07:47:34;;;;;;;22.15;5.78;;;;;;;14.62;73.43;101599.31;4996199;28;20030;-78
2022/05/04 07:50:07;;;;;;;21.10;5.30;;;;;;;15.13;71.11;101598.59;4998398;28;20042;-78
2022/05/04 07:52:33;;;;;;;19.98;4.90;;;;;;;14.72;72.08;101596.66;4997570;28;20030;-77
2022/05/04 07:55:02;;;;;;;23.83;5.78;;;;;;;15.10;70.62;101603.50;4997075;28;20030;-76
2022/05/04 07:57:28;;;;;;;25.10;5.88;;;;;;;16.18;66.11;101603.16;5011602;28;20037;-76
2022/05/04 08:05:42;;;;;;;17.10;4.80;;;;;;;16.10;65.91;101603.88;4986468;28;20096;-76
2022/05/04 08:08:08;;;;;;;14.65;4.38;;;;;;;15.71;64.71;101600.00;5012314;28;20073;-77
2022/05/04 08:10:36;;;;;;;17.67;5.38;;;;;;;15.90;64.37;101591.84;4991270;28;20035;-76
2022/05/04 08:13:02;;;;;;;16.00;5.07;;;;;;;16.17;66.42;101601.44;4982172;28;20041;-78
2022/05/04 08:15:30;;;;;;;15.88;4.55;;;;;;;17.22;60.68;101594.50;4996831;28;20451;-77
2022/05/04 08:17:57;;;;;;;17.73;5.03;;;;;;;16.18;62.30;101597.63;4979634;28;20034;-78
2022/05/04 08:20:24;;;;;;;17.15;4.95;;;;;;;16.24;65.70;101597.09;4996633;28;20038;-77
2022/05/04 08:22:51;;;;;;;19.60;4.88;;;;;;;16.91;62.74;101591.88;4994796;28;20246;-78
2022/05/04 08:25:17;;;;;;;18.25;6.18;;;;;;;16.91;61.48;101586.34;4996995;28;20030;-78
2022/05/04 08:27:44;;;;;;;19.23;5.55;;;;;;;16.52;64.05;101594.53;4996259;28;20438;-78
2022/05/04 08:30:10;;;;;;;16.58;5.05;;;;;;;16.49;64.32;101587.41;4954145;28;20050;-77
2022/05/04 08:32:37;;;;;;;16.23;5.90;;;;;;;16.26;64.46;101597.81;4975673;28;20069;-77
2022/05/04 08:35:02;;;;;;;20.75;5.80;;;;;;;16.20;62.63;101590.09;4977387;28;20034;-77
2022/05/04 08:37:31;;;;;;;23.10;5.78;;;;;;;17.23;60.25;101590.69;4960479;28;20034;-77
2022/05/04 08:39:57;;;;;;;14.73;5.00;;;;;;;16.42;62.71;101596.41;4961469;28;20042;-77
2022/05/04 08:42:25;;;;;;;18.65;5.72;;;;;;;16.59;62.75;101590.19;4996077;28;20031;-77
2022/05/04 08:45:01;;;;;;;20.15;6.75;;;;;;;16.19;65.35;101584.72;4979314;28;20555;-77
2022/05/04 08:47:31;;;;;;;17.42;6.57;;;;;;;16.57;63.01;101588.59;4995828;28;20030;-79
2022/05/04 08:49:58;;;;;;;15.65;6.75;;;;;;;16.59;62.85;101592.09;5011290;28;20422;-77
2022/05/04 08:52:27;;;;;;;24.70;7.03;;;;;;;17.22;59.36;101587.06;4996174;28;20034;-77
2022/05/04 08:54:56;;;;;;;16.38;7.10;;;;;;;16.96;61.22;101584.00;4994886;28;20046;-77
2022/05/04 08:57:23;;;;;;;25.05;6.57;;;;;;;17.06;61.10;101589.53;4991119;28;20463;-77
2022/05/04 08:59:48;;;;;;;20.42;7.35;;;;;;;17.48;60.04;101589.22;4967815;28;20055;-77
2022/05/04 09:02:14;;;;;;;21.35;6.97;;;;;;;16.85;60.63;101592.44;4993612;28;20035;-78
2022/05/04 09:04:43;;;;;;;20.95;8.15;;;;;;;16.84;61.35;101593.41;4961682;28;20122;-77
2022/05/04 09:07:24;;;;;;;21.15;7.97;;;;;;;17.03;60.78;101587.91;4991419;28;20408;-77
2022/05/04 09:09:53;;;;;;;25.67;8.05;;;;;;;17.65;56.79;101587.56;4976436;28;20471;-77
2022/05/04 09:12:19;;;;;;;21.85;8.45;;;;;;;17.73;57.10;101590.44;5001074;28;20121;-77
2022/05/04 09:14:49;;;;;;;23.17;8.50;;;;;;;17.01;60.24;101586.34;4994748;28;20062;-77
2022/05/04 09:17:16;;;;;;;23.38;8.57;;;;;;;16.82;61.05;101579.75;4984213;28;20081;-78
2022/05/04 09:22:40;;;;;;;26.58;9.25;;;;;;;17.14;59.95;101580.50;4976114;28;20198;-77
2022/05/04 09:25:17;;;;;;;20.67;8.05;;;;;;;17.33;58.85;101572.19;4974715;28;20078;-77
2022/05/04 09:27:47;;;;;;;22.23;8.70;;;;;;;18.00;58.49;101572.16;5003202;28;20102;-77
2022/05/04 09:30:13;;;;;;;31.35;9.70;;;;;;;18.30;56.44;101567.31;4992851;28;20042;-77
2022/05/04 09:32:41;;;;;;;28.33;10.10;;;;;;;17.46;57.54;101571.84;4993828;28;20474;-77
2022/05/04 09:35:14;;;;;;;27.00;9.05;;;;;;;17.24;58.64;101570.31;4994754;28;20038;-78
2022/05/04 09:46:02;;;;;;;19.55;9.23;;;;;;;17.56;57.06;101567.19;4991209;28;20046;-76
2022/05/04 09:48:31;;;;;;;18.67;9.70;;;;;;;18.18;55.15;101573.09;4995340;28;20097;-77
2022/05/04 09:51:00;;;;;;;25.58;8.98;;;;;;;18.05;55.40;101571.69;4994128;28;20030;-77
2022/05/04 09:53:27;;;;;;;26.67;9.40;;;;;;;17.91;56.91;101567.53;4994598;28;20061;-77
2022/05/04 09:55:55;;;;;;;25.45;10.27;;;;;;;18.37;54.71;101563.78;4994320;28;20034;-78
2022/05/04 09:58:23;;;;;;;24.80;10.05;;;;;;;17.84;55.42;101570.00;4992509;28;20038;-77
2022/05/04 10:00:51;;;;;;;26.00;10.68;;;;;;;18.50;54.14;101563.41;4992073;28;20027;-77
2022/05/04 10:03:18;;;;;;;35.20;10.55;;;;;;;18.35;54.51;101563.06;4977975;28;20039;-77
2022/05/04 10:05:45;;;;;;;27.98;10.38;;;;;;;17.51;55.83;101560.34;4986828;28;20053;-76
2022/05/04 10:08:11;;;;;;;28.17;10.32;;;;;;;17.43;58.50;101561.97;4992829;28;20045;-76
2022/05/04 10:10:37;;;;;;;27.98;11.13;;;;;;;17.86;56.70;101554.09;4992205;28;20035;-77
2022/05/04 10:13:03;;;;;;;32.80;11.18;;;;;;;18.09;55.87;101556.53;4993424;28;20096;-76
2022/05/04 10:15:30;;;;;;;26.85;11.02;;;;;;;17.40;57.30;101559.50;4985206;28;20129;-76
2022/05/04 10:18:12;;;;;;;36.13;11.43;;;;;;;17.63;55.77;101548.06;4976717;28;20495;-76
2022/05/04 10:20:44;;;;;;;26.60;11.32;;;;;;;17.86;52.84;101542.16;4990236;28;20060;-77
2022/05/04 10:23:13;;;;;;;22.92;10.68;;;;;;;18.26;52.75;101550.13;4993359;28;20165;-77
2022/05/04 10:25:38;;;;;;;26.95;10.57;;;;;;;17.81;54.15;101557.31;5008009;28;20070;-77
2022/05/04 10:28:07;;;;;;;26.75;11.15;;;;;;;18.17;51.66;101543.63;4989851;28;20038;-76
2022/05/04 10:30:34;;;;;;;27.80;10.40;;;;;;;18.24;51.56;101548.56;4993972;28;20022;-76
2022/05/04 10:33:11;;;;;;;27.20;10.73;;;;;;;18.15;54.14;101542.91;4994503;28;20478;-77
2022/05/04 10:35:45;;;;;;;34.05;12.23;;;;;;;18.39;53.47;101554.44;4993367;28;20030;-77
2022/05/04 10:38:28;;;;;;;35.75;11.55;;;;;;;17.95;54.36;101542.13;4974970;28;20125;-77
2022/05/04 10:40:58;;;;;;;33.05;11.73;;;;;;;17.94;53.76;101540.41;5001954;28;20027;-78
2022/05/04 10:43:50;;;;;;;24.45;11.52;;;;;;;18.23;52.78;101533.81;4974390;28;20046;-78
2022/05/04 10:46:22;;;;;;;31.15;11.23;;;;;;;18.58;52.38;101542.34;4972464;28;20055;-78
2022/05/04 10:49:05;;;;;;;30.00;11.68;;;;;;;19.20;49.67;101546.09;4974475;28;20045;-76
2022/05/04 10:51:37;;;;;;;25.00;11.93;;;;;;;18.60;52.10;101540.31;5008515;28;20038;-77
2022/05/04 10:54:12;;;;;;;31.65;11.55;;;;;;;19.45;48.52;101541.59;4994601;28;20045;-77
2022/05/04 10:56:58;;;;;;;28.83;13.02;;;;;;;18.33;53.69;101539.28;4993842;28;20673;-77
2022/05/04 10:59:34;;;;;;;37.00;12.52;;;;;;;18.03;54.60;101538.59;4992920;28;20134;-76
2022/05/04 11:02:04;;;;;;;33.42;13.20;;;;;;;17.78;54.20;101532.69;5009251;28;20038;-78
2022/05/04 11:04:32;;;;;;;40.22;13.02;;;;;;;18.22;54.04;101528.41;4992178;28;20030;-76
2022/05/04 11:06:59;;;;;;;36.40;13.75;;;;;;;18.62;54.21;101539.09;4993269;28;20038;-77
2022/05/04 11:09:29;;;;;;;31.88;13.23;;;;;;;18.94;51.67;101525.72;4992280;28;20041;-77
2022/05/04 11:12:02;;;;;;;42.05;12.82;;;;;;;19.04;51.88;101532.06;5008804;28;20145;-77
2022/05/04 11:14:29;;;;;;;35.17;13.27;;;;;;;18.93;51.49;101524.84;4993832;28;20462;-77
2022/05/04 11:16:57;;;;;;;27.98;13.68;;;;;;;18.46;52.67;101530.59;4992312;28;20045;-76
2022/05/04 11:19:25;;;;;;;33.22;13.27;;;;;;;18.45;49.65;101532.50;5008658;28;20406;-76
2022/05/04 11:21:51;;;;;;;36.40;14.25;;;;;;;18.39;51.02;101519.25;4960533;28;20034;-77
2022/05/04 11:24:17;;;;;;;39.33;14.02;;;;;;;18.70;50.58;101521.66;5008990;28;20065;-77
2022/05/04 11:26:48;;;;;;;38.47;14.05;;;;;;;18.68;50.13;101523.75;4991849;28;20081;-76
2022/05/04 11:29:19;;;;;;;44.20;13.45;;;;;;;18.96;49.77;101521.78;4992750;28;20054;-76
2022/05/04 11:31:56;;;;;;;39.55;14.38;;;;;;;18.83;50.82;101522.16;5008857;28;20058;-77
2022/05/04 11:34:35;;;;;;;38.58;13.55;;;;;;;18.77;51.07;101520.00;5009042;28;20027;-77
2022/05/04 11:37:09;;;;;;;37.85;14.43;;;;;;;18.23;50.43;101516.31;4993229;28;20413;-76
2022/05/04 11:39:36;;;;;;;40.97;15.63;;;;;;;18.28;49.73;101512.06;4985464;28;20038;-76
2022/05/04 11:42:03;;;;;;;42.80;15.35;;;;;;;18.58;50.65;101509.94;4976367;28;20030;-77
2022/05/04 11:44:31;;;;;;;38.65;15.25;;;;;;;18.89;50.71;101510.44;4976055;28;20041;-77
2022/05/04 11:47:00;;;;;;;42.42;14.70;;;;;;;18.78;50.16;101510.66;5008598;28;20034;-78
2022/05/04 11:49:29;;;;;;;46.72;16.58;;;;;;;18.99;47.26;101513.13;4993332;28;20398;-77
2022/05/04 11:51:57;;;;;;;43.38;15.50;;;;;;;18.48;49.64;101507.25;4993056;28;20026;-78
2022/05/04 11:54:23;;;;;;;46.70;14.88;;;;;;;18.48;49.91;101498.94;4993549;28;20035;-77
2022/05/04 11:56:51;;;;;;;49.83;16.63;;;;;;;18.22;49.96;101492.38;4990394;28;20053;-78
2022/05/04 11:59:17;;;;;;;53.40;17.80;;;;;;;18.13;53.92;101495.06;4970092;28;20129;-77